sensor_id;sensor_type;location;lat;lon;timestamp;P1;durP1;ratioP1;P2;durP2;ratioP2
4700;SDS011;8724;51.272;6.554;2022-12-29T00:02:03;0.90;;;0.90;;
4700;SDS011;8724;51.272;6.554;2022-12-29T00:04:32;0.70;;;0.70;;
4700;SDS011;8724;51.272;6.554;2022-12-29T00:07:00;0.60;;;0.60;;
4700;SDS011;8724;51.272;6.554;2022-12-29T00:09:31;0.90;;;0.70;;
4700;SDS011;8724;51.272;6.554;2022-12-29T00:12:02;0.60;;;0.60;;
4700;SDS011;8724;51.272;6.554;2022-12-29T00:14:31;0.70;;;0.60;;
4700;SDS011;8724;51.272;6.554;2022-12-29T00:17:25;0.60;;;0.60;;
4700;SDS011;8724;51.272;6.554;2022-12-29T00:19:53;0.63;;;0.63;;
4700;SDS011;8724;51.272;6.554;2022-12-29T00:22:40;0.67;;;0.67;;
4700;SDS011;8724;51.272;6.554;2022-12-29T00:25:25;0.67;;;0.67;;
4700;SDS011;8724;51.272;6.554;2022-12-29T00:28:12;0.67;;;0.60;;
4700;SDS011;8724;51.272;6.554;2022-12-29T00:30:59;0.73;;;0.60;;
4700;SDS011;8724;51.272;6.554;2022-12-29T00:33:47;2.00;;;0.70;;
4700;SDS011;8724;51.272;6.554;2022-12-29T00:36:35;2.13;;;0.77;;
4700;SDS011;8724;51.272;6.554;2022-12-29T00:39:06;0.60;;;0.60;;
4700;SDS011;8724;51.272;6.554;2022-12-29T00:41:54;1.00;;;0.60;;
4700;SDS011;8724;51.272;6.554;2022-12-29T00:44:42;0.60;;;0.60;;
4700;SDS011;8724;51.272;6.554;2022-12-29T00:47:10;0.77;;;0.60;;
4700;SDS011;8724;51.272;6.554;2022-12-29T00:49:39;0.60;;;0.60;;
4700;SDS011;8724;51.272;6.554;2022-12-29T00:52:07;0.60;;;0.60;;
4700;SDS011;8724;51.272;6.554;2022-12-29T00:54:37;0.80;;;0.80;;
4700;SDS011;8724;51.272;6.554;2022-12-29T00:57:07;0.60;;;0.60;;
4700;SDS011;8724;51.272;6.554;2022-12-29T00:59:37;0.77;;;0.70;;
4700;SDS011;8724;51.272;6.554;2022-12-29T01:02:08;1.27;;;0.60;;
4700;SDS011;8724;51.272;6.554;2022-12-29T01:04:37;0.60;;;0.50;;
4700;SDS011;8724;51.272;6.554;2022-12-29T01:07:05;0.60;;;0.50;;
4700;SDS011;8724;51.272;6.554;2022-12-29T01:09:36;1.43;;;0.63;;
4700;SDS011;8724;51.272;6.554;2022-12-29T01:12:22;0.60;;;0.60;;
4700;SDS011;8724;51.272;6.554;2022-12-29T01:15:05;0.70;;;0.70;;
4700;SDS011;8724;51.272;6.554;2022-12-29T01:17:35;0.70;;;0.70;;
4700;SDS011;8724;51.272;6.554;2022-12-29T01:20:04;0.60;;;0.60;;
4700;SDS011;8724;51.272;6.554;2022-12-29T01:22:34;0.60;;;0.57;;
4700;SDS011;8724;51.272;6.554;2022-12-29T01:25:03;0.60;;;0.60;;
4700;SDS011;8724;51.272;6.554;2022-12-29T01:27:33;0.50;;;0.50;;
4700;SDS011;8724;51.272;6.554;2022-12-29T01:30:04;0.60;;;0.60;;
4700;SDS011;8724;51.272;6.554;2022-12-29T01:32:33;0.73;;;0.70;;
4700;SDS011;8724;51.272;6.554;2022-12-29T01:35:03;0.60;;;0.60;;
4700;SDS011;8724;51.272;6.554;2022-12-29T01:37:34;0.60;;;0.60;;
4700;SDS011;8724;51.272;6.554;2022-12-29T01:40:02;0.60;;;0.60;;
4700;SDS011;8724;51.272;6.554;2022-12-29T01:42:32;0.70;;;0.70;;
4700;SDS011;8724;51.272;6.554;2022-12-29T01:45:01;0.77;;;0.77;;
4700;SDS011;8724;51.272;6.554;2022-12-29T01:47:33;0.70;;;0.60;;
4700;SDS011;8724;51.272;6.554;2022-12-29T01:50:06;0.60;;;0.60;;
4700;SDS011;8724;51.272;6.554;2022-12-29T01:52:41;0.50;;;0.50;;
4700;SDS011;8724;51.272;6.554;2022-12-29T01:55:15;0.60;;;0.60;;
4700;SDS011;8724;51.272;6.554;2022-12-29T01:57:46;0.90;;;0.73;;
4700;SDS011;8724;51.272;6.554;2022-12-29T02:00:16;1.10;;;0.60;;
4700;SDS011;8724;51.272;6.554;2022-12-29T02:02:47;0.60;;;0.60;;
4700;SDS011;8724;51.272;6.554;2022-12-29T02:05:21;0.70;;;0.70;;
4700;SDS011;8724;51.272;6.554;2022-12-29T02:07:52;1.10;;;1.00;;
4700;SDS011;8724;51.272;6.554;2022-12-29T02:10:21;0.70;;;0.67;;
4700;SDS011;8724;51.272;6.554;2022-12-29T02:12:55;1.27;;;0.70;;
4700;SDS011;8724;51.272;6.554;2022-12-29T02:15:26;0.70;;;0.70;;
4700;SDS011;8724;51.272;6.554;2022-12-29T02:18:06;0.70;;;0.70;;
4700;SDS011;8724;51.272;6.554;2022-12-29T02:23:51;1.00;;;0.70;;
4700;SDS011;8724;51.272;6.554;2022-12-29T02:26:49;0.83;;;0.83;;
4700;SDS011;8724;51.272;6.554;2022-12-29T02:30:02;0.80;;;0.63;;
4700;SDS011;8724;51.272;6.554;2022-12-29T02:32:48;2.10;;;0.80;;
4700;SDS011;8724;51.272;6.554;2022-12-29T02:35:25;0.90;;;0.90;;
4700;SDS011;8724;51.272;6.554;2022-12-29T02:38:01;4.90;;;1.20;;
4700;SDS011;8724;51.272;6.554;2022-12-29T02:40:39;0.80;;;0.80;;
4700;SDS011;8724;51.272;6.554;2022-12-29T02:43:13;4.27;;;0.93;;
4700;SDS011;8724;51.272;6.554;2022-12-29T02:45:51;0.80;;;0.73;;
4700;SDS011;8724;51.272;6.554;2022-12-29T02:48:27;3.03;;;1.10;;
4700;SDS011;8724;51.272;6.554;2022-12-29T02:50:59;1.73;;;0.80;;
4700;SDS011;8724;51.272;6.554;2022-12-29T02:53:30;1.03;;;0.80;;
4700;SDS011;8724;51.272;6.554;2022-12-29T02:56:18;1.07;;;0.97;;
4700;SDS011;8724;51.272;6.554;2022-12-29T02:58:47;1.00;;;0.83;;
4700;SDS011;8724;51.272;6.554;2022-12-29T03:01:19;0.70;;;0.70;;
4700;SDS011;8724;51.272;6.554;2022-12-29T03:03:59;1.20;;;0.83;;
4700;SDS011;8724;51.272;6.554;2022-12-29T03:06:47;1.33;;;0.80;;
4700;SDS011;8724;51.272;6.554;2022-12-29T03:09:26;1.63;;;1.00;;
4700;SDS011;8724;51.272;6.554;2022-12-29T03:12:06;0.80;;;0.80;;
4700;SDS011;8724;51.272;6.554;2022-12-29T03:14:47;0.90;;;0.70;;
4700;SDS011;8724;51.272;6.554;2022-12-29T03:17:46;1.77;;;1.37;;
4700;SDS011;8724;51.272;6.554;2022-12-29T03:20:21;1.57;;;0.80;;
4700;SDS011;8724;51.272;6.554;2022-12-29T03:22:55;0.73;;;0.70;;
4700;SDS011;8724;51.272;6.554;2022-12-29T03:25:30;0.70;;;0.70;;
4700;SDS011;8724;51.272;6.554;2022-12-29T03:28:06;1.17;;;0.90;;
4700;SDS011;8724;51.272;6.554;2022-12-29T03:30:42;0.93;;;0.80;;
4700;SDS011;8724;51.272;6.554;2022-12-29T03:33:14;0.80;;;0.80;;
4700;SDS011;8724;51.272;6.554;2022-12-29T03:35:48;4.77;;;0.80;;
4700;SDS011;8724;51.272;6.554;2022-12-29T03:38:22;2.60;;;0.80;;
4700;SDS011;8724;51.272;6.554;2022-12-29T03:40:56;2.73;;;1.00;;
4700;SDS011;8724;51.272;6.554;2022-12-29T03:43:29;0.80;;;0.80;;
4700;SDS011;8724;51.272;6.554;2022-12-29T03:45:58;2.10;;;0.80;;
4700;SDS011;8724;51.272;6.554;2022-12-29T03:48:26;0.73;;;0.73;;
4700;SDS011;8724;51.272;6.554;2022-12-29T03:50:57;0.80;;;0.80;;
4700;SDS011;8724;51.272;6.554;2022-12-29T03:53:26;1.00;;;0.70;;
4700;SDS011;8724;51.272;6.554;2022-12-29T03:55:54;1.00;;;0.90;;
4700;SDS011;8724;51.272;6.554;2022-12-29T03:58:23;0.70;;;0.70;;
4700;SDS011;8724;51.272;6.554;2022-12-29T04:01:00;0.70;;;0.70;;
4700;SDS011;8724;51.272;6.554;2022-12-29T04:03:31;0.70;;;0.60;;
4700;SDS011;8724;51.272;6.554;2022-12-29T04:06:01;0.63;;;0.63;;
4700;SDS011;8724;51.272;6.554;2022-12-29T04:08:38;1.00;;;0.60;;
4700;SDS011;8724;51.272;6.554;2022-12-29T04:11:07;0.80;;;0.70;;
4700;SDS011;8724;51.272;6.554;2022-12-29T04:13:35;2.10;;;0.60;;
4700;SDS011;8724;51.272;6.554;2022-12-29T04:16:08;0.60;;;0.60;;
4700;SDS011;8724;51.272;6.554;2022-12-29T04:18:37;1.07;;;0.80;;
4700;SDS011;8724;51.272;6.554;2022-12-29T04:21:07;1.03;;;0.73;;
4700;SDS011;8724;51.272;6.554;2022-12-29T04:23:38;1.60;;;0.63;;
4700;SDS011;8724;51.272;6.554;2022-12-29T04:26:09;2.03;;;0.90;;
4700;SDS011;8724;51.272;6.554;2022-12-29T04:29:13;0.60;;;0.60;;
4700;SDS011;8724;51.272;6.554;2022-12-29T04:32:01;2.50;;;1.67;;
4700;SDS011;8724;51.272;6.554;2022-12-29T04:34:32;0.60;;;0.60;;
4700;SDS011;8724;51.272;6.554;2022-12-29T04:37:01;0.80;;;0.80;;
4700;SDS011;8724;51.272;6.554;2022-12-29T04:39:30;0.80;;;0.80;;
4700;SDS011;8724;51.272;6.554;2022-12-29T04:42:01;1.43;;;0.70;;
4700;SDS011;8724;51.272;6.554;2022-12-29T04:44:31;0.70;;;0.70;;
4700;SDS011;8724;51.272;6.554;2022-12-29T04:47:10;0.83;;;0.83;;
4700;SDS011;8724;51.272;6.554;2022-12-29T04:49:48;3.67;;;0.90;;
4700;SDS011;8724;51.272;6.554;2022-12-29T04:52:38;0.70;;;0.70;;
4700;SDS011;8724;51.272;6.554;2022-12-29T04:55:09;3.20;;;1.00;;
4700;SDS011;8724;51.272;6.554;2022-12-29T04:57:39;2.53;;;0.77;;
4700;SDS011;8724;51.272;6.554;2022-12-29T05:00:13;1.50;;;0.70;;
4700;SDS011;8724;51.272;6.554;2022-12-29T05:02:44;3.03;;;1.00;;
4700;SDS011;8724;51.272;6.554;2022-12-29T05:05:14;2.80;;;1.47;;
4700;SDS011;8724;51.272;6.554;2022-12-29T05:07:48;0.90;;;0.60;;
4700;SDS011;8724;51.272;6.554;2022-12-29T05:10:17;0.97;;;0.87;;
4700;SDS011;8724;51.272;6.554;2022-12-29T05:12:47;2.27;;;0.90;;
4700;SDS011;8724;51.272;6.554;2022-12-29T05:15:17;2.53;;;1.00;;
4700;SDS011;8724;51.272;6.554;2022-12-29T05:17:45;3.80;;;1.00;;
4700;SDS011;8724;51.272;6.554;2022-12-29T05:20:13;1.57;;;0.80;;
4700;SDS011;8724;51.272;6.554;2022-12-29T05:22:43;1.17;;;1.07;;
4700;SDS011;8724;51.272;6.554;2022-12-29T05:25:14;1.90;;;1.10;;
4700;SDS011;8724;51.272;6.554;2022-12-29T05:28:12;2.63;;;1.00;;
4700;SDS011;8724;51.272;6.554;2022-12-29T05:30:47;1.00;;;0.80;;
4700;SDS011;8724;51.272;6.554;2022-12-29T05:33:18;0.97;;;0.60;;
4700;SDS011;8724;51.272;6.554;2022-12-29T05:35:49;1.53;;;1.00;;
4700;SDS011;8724;51.272;6.554;2022-12-29T05:38:19;1.87;;;0.80;;
4700;SDS011;8724;51.272;6.554;2022-12-29T05:40:49;1.23;;;0.80;;
4700;SDS011;8724;51.272;6.554;2022-12-29T05:43:49;2.40;;;1.23;;
4700;SDS011;8724;51.272;6.554;2022-12-29T05:46:29;0.90;;;0.70;;
4700;SDS011;8724;51.272;6.554;2022-12-29T05:49:25;1.90;;;0.87;;
4700;SDS011;8724;51.272;6.554;2022-12-29T05:52:22;1.40;;;0.87;;
4700;SDS011;8724;51.272;6.554;2022-12-29T05:54:52;5.90;;;0.93;;
4700;SDS011;8724;51.272;6.554;2022-12-29T05:57:25;1.17;;;0.70;;
4700;SDS011;8724;51.272;6.554;2022-12-29T06:00:03;0.97;;;0.80;;
4700;SDS011;8724;51.272;6.554;2022-12-29T06:02:43;2.67;;;1.00;;
4700;SDS011;8724;51.272;6.554;2022-12-29T06:05:16;1.10;;;0.87;;
4700;SDS011;8724;51.272;6.554;2022-12-29T06:07:48;1.40;;;0.80;;
4700;SDS011;8724;51.272;6.554;2022-12-29T06:10:18;1.17;;;0.70;;
4700;SDS011;8724;51.272;6.554;2022-12-29T06:12:59;2.50;;;1.20;;
4700;SDS011;8724;51.272;6.554;2022-12-29T06:15:33;2.07;;;1.20;;
4700;SDS011;8724;51.272;6.554;2022-12-29T06:18:06;2.10;;;0.80;;
4700;SDS011;8724;51.272;6.554;2022-12-29T06:20:38;1.30;;;1.00;;
4700;SDS011;8724;51.272;6.554;2022-12-29T06:23:07;2.43;;;0.90;;
4700;SDS011;8724;51.272;6.554;2022-12-29T06:25:36;1.53;;;0.83;;
4700;SDS011;8724;51.272;6.554;2022-12-29T06:28:06;1.57;;;0.90;;
4700;SDS011;8724;51.272;6.554;2022-12-29T06:30:37;1.27;;;0.90;;
4700;SDS011;8724;51.272;6.554;2022-12-29T06:33:07;2.00;;;1.00;;
4700;SDS011;8724;51.272;6.554;2022-12-29T06:35:36;2.23;;;0.90;;
4700;SDS011;8724;51.272;6.554;2022-12-29T06:38:04;1.73;;;0.90;;
4700;SDS011;8724;51.272;6.554;2022-12-29T06:40:33;1.03;;;0.93;;
4700;SDS011;8724;51.272;6.554;2022-12-29T06:43:02;1.17;;;0.83;;
4700;SDS011;8724;51.272;6.554;2022-12-29T06:45:54;2.20;;;1.10;;
4700;SDS011;8724;51.272;6.554;2022-12-29T06:48:23;2.13;;;1.20;;
4700;SDS011;8724;51.272;6.554;2022-12-29T06:50:52;1.73;;;0.80;;
4700;SDS011;8724;51.272;6.554;2022-12-29T06:53:26;1.77;;;1.20;;
4700;SDS011;8724;51.272;6.554;2022-12-29T06:55:54;2.10;;;0.90;;
4700;SDS011;8724;51.272;6.554;2022-12-29T06:58:23;1.60;;;0.83;;
4700;SDS011;8724;51.272;6.554;2022-12-29T07:00:53;1.40;;;0.80;;
4700;SDS011;8724;51.272;6.554;2022-12-29T07:03:22;1.60;;;1.13;;
4700;SDS011;8724;51.272;6.554;2022-12-29T07:05:52;1.60;;;1.30;;
4700;SDS011;8724;51.272;6.554;2022-12-29T07:08:21;3.77;;;1.07;;
4700;SDS011;8724;51.272;6.554;2022-12-29T07:10:50;1.23;;;0.90;;
4700;SDS011;8724;51.272;6.554;2022-12-29T07:13:20;4.43;;;1.37;;
4700;SDS011;8724;51.272;6.554;2022-12-29T07:15:49;2.07;;;1.43;;
4700;SDS011;8724;51.272;6.554;2022-12-29T07:18:19;3.57;;;1.10;;
4700;SDS011;8724;51.272;6.554;2022-12-29T07:20:47;3.43;;;1.33;;
4700;SDS011;8724;51.272;6.554;2022-12-29T07:23:16;1.30;;;1.20;;
4700;SDS011;8724;51.272;6.554;2022-12-29T07:25:45;1.40;;;1.17;;
4700;SDS011;8724;51.272;6.554;2022-12-29T07:28:14;2.93;;;1.20;;
4700;SDS011;8724;51.272;6.554;2022-12-29T07:30:42;5.37;;;1.00;;
4700;SDS011;8724;51.272;6.554;2022-12-29T07:33:13;1.80;;;1.40;;
4700;SDS011;8724;51.272;6.554;2022-12-29T07:35:44;2.80;;;1.73;;
4700;SDS011;8724;51.272;6.554;2022-12-29T07:38:13;2.17;;;1.20;;
4700;SDS011;8724;51.272;6.554;2022-12-29T07:40:43;2.23;;;1.47;;
4700;SDS011;8724;51.272;6.554;2022-12-29T07:43:12;5.03;;;1.80;;
4700;SDS011;8724;51.272;6.554;2022-12-29T07:45:52;6.20;;;1.30;;
4700;SDS011;8724;51.272;6.554;2022-12-29T07:48:22;2.80;;;1.20;;
4700;SDS011;8724;51.272;6.554;2022-12-29T07:50:54;5.37;;;1.10;;
4700;SDS011;8724;51.272;6.554;2022-12-29T07:53:24;4.20;;;1.20;;
4700;SDS011;8724;51.272;6.554;2022-12-29T07:55:53;2.83;;;1.30;;
4700;SDS011;8724;51.272;6.554;2022-12-29T07:58:21;3.13;;;1.50;;
4700;SDS011;8724;51.272;6.554;2022-12-29T08:00:52;2.63;;;1.07;;
4700;SDS011;8724;51.272;6.554;2022-12-29T08:03:21;5.30;;;1.10;;
4700;SDS011;8724;51.272;6.554;2022-12-29T08:05:50;3.50;;;1.17;;
4700;SDS011;8724;51.272;6.554;2022-12-29T08:08:21;2.33;;;1.40;;
4700;SDS011;8724;51.272;6.554;2022-12-29T08:10:50;4.83;;;1.27;;
4700;SDS011;8724;51.272;6.554;2022-12-29T08:13:19;4.53;;;1.30;;
4700;SDS011;8724;51.272;6.554;2022-12-29T08:15:48;1.30;;;1.10;;
4700;SDS011;8724;51.272;6.554;2022-12-29T08:18:17;4.97;;;1.33;;
4700;SDS011;8724;51.272;6.554;2022-12-29T08:20:45;2.73;;;0.87;;
4700;SDS011;8724;51.272;6.554;2022-12-29T08:23:23;5.47;;;1.43;;
4700;SDS011;8724;51.272;6.554;2022-12-29T08:25:56;4.57;;;1.27;;
4700;SDS011;8724;51.272;6.554;2022-12-29T08:28:25;4.87;;;1.40;;
4700;SDS011;8724;51.272;6.554;2022-12-29T08:30:56;3.23;;;1.10;;
4700;SDS011;8724;51.272;6.554;2022-12-29T08:33:28;4.33;;;1.73;;
4700;SDS011;8724;51.272;6.554;2022-12-29T08:36:00;3.30;;;1.07;;
4700;SDS011;8724;51.272;6.554;2022-12-29T08:38:32;3.20;;;1.80;;
4700;SDS011;8724;51.272;6.554;2022-12-29T08:41:01;4.03;;;1.30;;
4700;SDS011;8724;51.272;6.554;2022-12-29T08:43:30;3.07;;;1.30;;
4700;SDS011;8724;51.272;6.554;2022-12-29T08:45:59;3.10;;;1.40;;
4700;SDS011;8724;51.272;6.554;2022-12-29T08:48:28;3.53;;;1.50;;
4700;SDS011;8724;51.272;6.554;2022-12-29T08:50:58;5.00;;;1.30;;
4700;SDS011;8724;51.272;6.554;2022-12-29T08:53:30;4.00;;;1.50;;
4700;SDS011;8724;51.272;6.554;2022-12-29T08:56:00;3.83;;;1.63;;
4700;SDS011;8724;51.272;6.554;2022-12-29T08:58:41;4.13;;;1.70;;
4700;SDS011;8724;51.272;6.554;2022-12-29T09:01:11;2.93;;;1.33;;
4700;SDS011;8724;51.272;6.554;2022-12-29T09:03:47;2.90;;;1.97;;
4700;SDS011;8724;51.272;6.554;2022-12-29T09:06:37;4.93;;;1.37;;
4700;SDS011;8724;51.272;6.554;2022-12-29T09:09:08;4.43;;;1.57;;
4700;SDS011;8724;51.272;6.554;2022-12-29T09:11:39;8.13;;;1.50;;
4700;SDS011;8724;51.272;6.554;2022-12-29T09:14:09;3.73;;;1.30;;
4700;SDS011;8724;51.272;6.554;2022-12-29T09:16:39;2.60;;;1.40;;
4700;SDS011;8724;51.272;6.554;2022-12-29T09:19:26;3.13;;;1.30;;
4700;SDS011;8724;51.272;6.554;2022-12-29T09:21:54;8.17;;;1.70;;
4700;SDS011;8724;51.272;6.554;2022-12-29T09:24:24;4.10;;;1.30;;
4700;SDS011;8724;51.272;6.554;2022-12-29T09:26:53;3.23;;;1.27;;
4700;SDS011;8724;51.272;6.554;2022-12-29T09:29:23;9.70;;;1.93;;
4700;SDS011;8724;51.272;6.554;2022-12-29T09:31:53;4.23;;;1.40;;
4700;SDS011;8724;51.272;6.554;2022-12-29T09:34:21;5.20;;;1.73;;
4700;SDS011;8724;51.272;6.554;2022-12-29T09:36:51;9.27;;;1.67;;
4700;SDS011;8724;51.272;6.554;2022-12-29T09:39:20;3.33;;;1.33;;
4700;SDS011;8724;51.272;6.554;2022-12-29T09:41:52;3.90;;;1.33;;
4700;SDS011;8724;51.272;6.554;2022-12-29T09:44:43;1.53;;;1.10;;
4700;SDS011;8724;51.272;6.554;2022-12-29T09:47:19;2.43;;;1.50;;
4700;SDS011;8724;51.272;6.554;2022-12-29T09:49:52;6.60;;;2.30;;
4700;SDS011;8724;51.272;6.554;2022-12-29T09:52:25;1.73;;;1.23;;
4700;SDS011;8724;51.272;6.554;2022-12-29T09:54:59;3.37;;;1.30;;
4700;SDS011;8724;51.272;6.554;2022-12-29T09:57:40;8.97;;;6.00;;
4700;SDS011;8724;51.272;6.554;2022-12-29T10:00:15;17.13;;;10.40;;
4700;SDS011;8724;51.272;6.554;2022-12-29T10:02:48;7.37;;;2.70;;
4700;SDS011;8724;51.272;6.554;2022-12-29T10:05:23;4.13;;;1.90;;
4700;SDS011;8724;51.272;6.554;2022-12-29T10:08:02;2.97;;;1.43;;
4700;SDS011;8724;51.272;6.554;2022-12-29T10:10:52;5.23;;;1.60;;
4700;SDS011;8724;51.272;6.554;2022-12-29T10:13:39;4.17;;;1.50;;
4700;SDS011;8724;51.272;6.554;2022-12-29T10:16:22;4.10;;;1.90;;
4700;SDS011;8724;51.272;6.554;2022-12-29T10:19:06;5.97;;;1.80;;
4700;SDS011;8724;51.272;6.554;2022-12-29T10:22:00;5.97;;;1.97;;
4700;SDS011;8724;51.272;6.554;2022-12-29T10:24:40;1.80;;;1.30;;
4700;SDS011;8724;51.272;6.554;2022-12-29T10:27:12;9.23;;;1.70;;
4700;SDS011;8724;51.272;6.554;2022-12-29T10:29:45;5.97;;;2.13;;
4700;SDS011;8724;51.272;6.554;2022-12-29T10:32:22;4.30;;;1.60;;
4700;SDS011;8724;51.272;6.554;2022-12-29T10:34:56;3.60;;;1.50;;
4700;SDS011;8724;51.272;6.554;2022-12-29T10:37:30;6.77;;;2.27;;
4700;SDS011;8724;51.272;6.554;2022-12-29T10:40:12;8.80;;;2.20;;
4700;SDS011;8724;51.272;6.554;2022-12-29T10:42:52;4.60;;;1.50;;
4700;SDS011;8724;51.272;6.554;2022-12-29T10:45:27;3.90;;;1.30;;
4700;SDS011;8724;51.272;6.554;2022-12-29T10:48:00;4.00;;;1.37;;
4700;SDS011;8724;51.272;6.554;2022-12-29T10:50:31;3.80;;;1.67;;
4700;SDS011;8724;51.272;6.554;2022-12-29T10:53:02;5.10;;;1.23;;
4700;SDS011;8724;51.272;6.554;2022-12-29T10:55:35;2.40;;;1.40;;
4700;SDS011;8724;51.272;6.554;2022-12-29T10:58:06;5.57;;;1.40;;
4700;SDS011;8724;51.272;6.554;2022-12-29T11:00:40;5.93;;;1.80;;
4700;SDS011;8724;51.272;6.554;2022-12-29T11:03:23;2.20;;;1.40;;
4700;SDS011;8724;51.272;6.554;2022-12-29T11:06:15;9.00;;;2.27;;
4700;SDS011;8724;51.272;6.554;2022-12-29T11:08:52;6.47;;;2.07;;
4700;SDS011;8724;51.272;6.554;2022-12-29T11:11:26;6.93;;;2.30;;
4700;SDS011;8724;51.272;6.554;2022-12-29T11:14:02;2.60;;;1.47;;
4700;SDS011;8724;51.272;6.554;2022-12-29T11:16:41;7.20;;;2.27;;
4700;SDS011;8724;51.272;6.554;2022-12-29T11:19:21;8.23;;;1.87;;
4700;SDS011;8724;51.272;6.554;2022-12-29T11:21:51;7.40;;;2.23;;
4700;SDS011;8724;51.272;6.554;2022-12-29T11:24:22;3.87;;;1.83;;
4700;SDS011;8724;51.272;6.554;2022-12-29T11:26:52;4.17;;;1.80;;
4700;SDS011;8724;51.272;6.554;2022-12-29T11:29:25;4.97;;;2.10;;
4700;SDS011;8724;51.272;6.554;2022-12-29T11:31:57;4.10;;;2.00;;
4700;SDS011;8724;51.272;6.554;2022-12-29T11:34:30;6.70;;;2.07;;
4700;SDS011;8724;51.272;6.554;2022-12-29T11:37:02;2.50;;;1.90;;
4700;SDS011;8724;51.272;6.554;2022-12-29T11:39:35;3.30;;;1.70;;
4700;SDS011;8724;51.272;6.554;2022-12-29T11:42:12;8.00;;;1.70;;
4700;SDS011;8724;51.272;6.554;2022-12-29T11:44:44;3.07;;;1.70;;
4700;SDS011;8724;51.272;6.554;2022-12-29T11:47:23;3.33;;;1.80;;
4700;SDS011;8724;51.272;6.554;2022-12-29T11:49:56;3.80;;;1.50;;
4700;SDS011;8724;51.272;6.554;2022-12-29T11:52:28;5.63;;;1.60;;
4700;SDS011;8724;51.272;6.554;2022-12-29T11:55:03;2.80;;;1.40;;
4700;SDS011;8724;51.272;6.554;2022-12-29T11:57:35;5.07;;;1.43;;
4700;SDS011;8724;51.272;6.554;2022-12-29T12:00:06;2.93;;;1.60;;
4700;SDS011;8724;51.272;6.554;2022-12-29T12:02:52;4.13;;;1.70;;
4700;SDS011;8724;51.272;6.554;2022-12-29T12:05:28;5.53;;;1.23;;
4700;SDS011;8724;51.272;6.554;2022-12-29T12:08:05;2.30;;;1.40;;
4700;SDS011;8724;51.272;6.554;2022-12-29T12:10:47;2.40;;;1.50;;
4700;SDS011;8724;51.272;6.554;2022-12-29T12:13:22;4.20;;;1.53;;
4700;SDS011;8724;51.272;6.554;2022-12-29T12:15:57;7.23;;;1.90;;
4700;SDS011;8724;51.272;6.554;2022-12-29T12:18:34;6.40;;;2.33;;
4700;SDS011;8724;51.272;6.554;2022-12-29T12:21:10;4.60;;;1.73;;
4700;SDS011;8724;51.272;6.554;2022-12-29T12:23:54;4.80;;;1.63;;
4700;SDS011;8724;51.272;6.554;2022-12-29T12:26:42;7.47;;;2.40;;
4700;SDS011;8724;51.272;6.554;2022-12-29T12:29:24;4.07;;;1.93;;
4700;SDS011;8724;51.272;6.554;2022-12-29T12:31:57;5.33;;;1.93;;
4700;SDS011;8724;51.272;6.554;2022-12-29T12:34:31;2.63;;;1.43;;
4700;SDS011;8724;51.272;6.554;2022-12-29T12:37:10;3.87;;;1.53;;
4700;SDS011;8724;51.272;6.554;2022-12-29T12:40:04;6.77;;;2.10;;
4700;SDS011;8724;51.272;6.554;2022-12-29T12:42:49;5.93;;;1.67;;
4700;SDS011;8724;51.272;6.554;2022-12-29T12:45:49;4.67;;;1.73;;
4700;SDS011;8724;51.272;6.554;2022-12-29T12:48:36;4.77;;;1.80;;
4700;SDS011;8724;51.272;6.554;2022-12-29T12:51:19;5.03;;;1.50;;
4700;SDS011;8724;51.272;6.554;2022-12-29T12:54:12;5.03;;;1.40;;
4700;SDS011;8724;51.272;6.554;2022-12-29T12:56:56;5.60;;;1.30;;
4700;SDS011;8724;51.272;6.554;2022-12-29T12:59:36;6.60;;;2.07;;
4700;SDS011;8724;51.272;6.554;2022-12-29T13:02:16;3.27;;;1.73;;
4700;SDS011;8724;51.272;6.554;2022-12-29T13:04:59;7.00;;;1.77;;
4700;SDS011;8724;51.272;6.554;2022-12-29T13:07:57;4.83;;;1.50;;
4700;SDS011;8724;51.272;6.554;2022-12-29T13:10:41;2.23;;;1.63;;
4700;SDS011;8724;51.272;6.554;2022-12-29T13:13:24;5.37;;;1.63;;
4700;SDS011;8724;51.272;6.554;2022-12-29T13:16:18;2.43;;;1.70;;
4700;SDS011;8724;51.272;6.554;2022-12-29T13:18:53;4.43;;;1.70;;
4700;SDS011;8724;51.272;6.554;2022-12-29T13:21:33;3.10;;;1.97;;
4700;SDS011;8724;51.272;6.554;2022-12-29T13:24:12;2.83;;;1.17;;
4700;SDS011;8724;51.272;6.554;2022-12-29T13:26:47;3.50;;;1.47;;
4700;SDS011;8724;51.272;6.554;2022-12-29T13:29:21;5.27;;;2.00;;
4700;SDS011;8724;51.272;6.554;2022-12-29T13:32:02;7.73;;;1.53;;
4700;SDS011;8724;51.272;6.554;2022-12-29T13:34:47;4.30;;;1.40;;
4700;SDS011;8724;51.272;6.554;2022-12-29T13:37:25;3.80;;;1.47;;
4700;SDS011;8724;51.272;6.554;2022-12-29T13:40:01;5.40;;;1.47;;
4700;SDS011;8724;51.272;6.554;2022-12-29T13:42:38;3.17;;;1.60;;
4700;SDS011;8724;51.272;6.554;2022-12-29T13:45:10;4.13;;;1.57;;
4700;SDS011;8724;51.272;6.554;2022-12-29T13:47:44;3.97;;;1.60;;
4700;SDS011;8724;51.272;6.554;2022-12-29T13:50:19;3.27;;;2.13;;
4700;SDS011;8724;51.272;6.554;2022-12-29T13:52:54;6.67;;;2.20;;
4700;SDS011;8724;51.272;6.554;2022-12-29T13:55:31;4.57;;;1.97;;
4700;SDS011;8724;51.272;6.554;2022-12-29T13:58:07;2.10;;;1.23;;
4700;SDS011;8724;51.272;6.554;2022-12-29T14:00:43;4.30;;;1.53;;
4700;SDS011;8724;51.272;6.554;2022-12-29T14:03:29;4.93;;;1.53;;
4700;SDS011;8724;51.272;6.554;2022-12-29T14:06:20;2.53;;;1.40;;
4700;SDS011;8724;51.272;6.554;2022-12-29T14:08:52;4.30;;;1.40;;
4700;SDS011;8724;51.272;6.554;2022-12-29T14:11:29;2.10;;;1.40;;
4700;SDS011;8724;51.272;6.554;2022-12-29T14:14:10;7.60;;;1.70;;
4700;SDS011;8724;51.272;6.554;2022-12-29T14:16:40;2.93;;;1.50;;
4700;SDS011;8724;51.272;6.554;2022-12-29T14:19:11;3.80;;;1.60;;
4700;SDS011;8724;51.272;6.554;2022-12-29T14:21:49;4.43;;;1.70;;
4700;SDS011;8724;51.272;6.554;2022-12-29T14:24:26;4.63;;;1.60;;
4700;SDS011;8724;51.272;6.554;2022-12-29T14:30:52;3.43;;;1.63;;
4700;SDS011;8724;51.272;6.554;2022-12-29T14:33:23;5.30;;;1.90;;
4700;SDS011;8724;51.272;6.554;2022-12-29T14:35:53;3.03;;;1.17;;
4700;SDS011;8724;51.272;6.554;2022-12-29T14:38:24;4.50;;;1.73;;
4700;SDS011;8724;51.272;6.554;2022-12-29T14:43:56;3.27;;;1.57;;
4700;SDS011;8724;51.272;6.554;2022-12-29T14:49:27;4.20;;;1.63;;
4700;SDS011;8724;51.272;6.554;2022-12-29T14:52:05;2.93;;;2.03;;
4700;SDS011;8724;51.272;6.554;2022-12-29T14:54:45;4.53;;;1.33;;
4700;SDS011;8724;51.272;6.554;2022-12-29T14:57:21;4.13;;;1.87;;
4700;SDS011;8724;51.272;6.554;2022-12-29T14:59:54;2.50;;;1.43;;
4700;SDS011;8724;51.272;6.554;2022-12-29T15:02:31;5.03;;;2.13;;
4700;SDS011;8724;51.272;6.554;2022-12-29T15:05:02;4.90;;;2.30;;
4700;SDS011;8724;51.272;6.554;2022-12-29T15:07:32;3.77;;;1.93;;
4700;SDS011;8724;51.272;6.554;2022-12-29T15:10:04;3.13;;;1.53;;
4700;SDS011;8724;51.272;6.554;2022-12-29T15:12:40;8.27;;;2.40;;
4700;SDS011;8724;51.272;6.554;2022-12-29T15:15:17;4.77;;;1.60;;
4700;SDS011;8724;51.272;6.554;2022-12-29T15:17:50;4.40;;;1.73;;
4700;SDS011;8724;51.272;6.554;2022-12-29T15:20:23;4.80;;;1.63;;
4700;SDS011;8724;51.272;6.554;2022-12-29T15:22:54;2.60;;;1.47;;
4700;SDS011;8724;51.272;6.554;2022-12-29T15:25:25;3.80;;;1.60;;
4700;SDS011;8724;51.272;6.554;2022-12-29T15:27:55;2.33;;;1.53;;
4700;SDS011;8724;51.272;6.554;2022-12-29T15:30:28;4.10;;;2.30;;
4700;SDS011;8724;51.272;6.554;2022-12-29T15:32:59;2.63;;;1.20;;
4700;SDS011;8724;51.272;6.554;2022-12-29T15:35:30;2.27;;;1.20;;
4700;SDS011;8724;51.272;6.554;2022-12-29T15:38:12;4.50;;;1.73;;
4700;SDS011;8724;51.272;6.554;2022-12-29T15:40:43;5.43;;;2.10;;
4700;SDS011;8724;51.272;6.554;2022-12-29T15:43:25;4.80;;;1.80;;
4700;SDS011;8724;51.272;6.554;2022-12-29T15:46:12;5.33;;;1.70;;
4700;SDS011;8724;51.272;6.554;2022-12-29T15:48:43;4.13;;;1.30;;
4700;SDS011;8724;51.272;6.554;2022-12-29T15:51:17;2.60;;;1.47;;
4700;SDS011;8724;51.272;6.554;2022-12-29T15:53:49;3.27;;;1.40;;
4700;SDS011;8724;51.272;6.554;2022-12-29T15:56:19;8.70;;;6.30;;
4700;SDS011;8724;51.272;6.554;2022-12-29T15:58:50;6.10;;;3.90;;
4700;SDS011;8724;51.272;6.554;2022-12-29T16:01:20;4.37;;;2.63;;
4700;SDS011;8724;51.272;6.554;2022-12-29T16:03:56;3.50;;;1.57;;
4700;SDS011;8724;51.272;6.554;2022-12-29T16:06:27;3.63;;;1.53;;
4700;SDS011;8724;51.272;6.554;2022-12-29T16:08:58;4.80;;;2.20;;
4700;SDS011;8724;51.272;6.554;2022-12-29T16:11:31;4.87;;;1.70;;
4700;SDS011;8724;51.272;6.554;2022-12-29T16:14:02;2.87;;;1.90;;
4700;SDS011;8724;51.272;6.554;2022-12-29T16:16:35;7.33;;;1.80;;